Terminal Aerodrome Forecast
Issued by NWS Pocatello, ID

Home | Current Version | Previous Version | Text Only | Print | Product List | Glossary On
Versions: 1 2 3 4 5 6 7 8 9 10 11 12
000
FTUS45 KPIH 241700
TAFIDA
TAF
KIDA 241720Z 2418/2518 22010KT P6SM FEW035 SCT110 BKN200
     FM242100 21010KT P6SM SKC
     FM250200 VRB05KT P6SM SKC=

USA.gov is the U.S. government's official web portal to all federal, state and local government web resources and services.